Adams Lake, Indiana
Current Conditions -  °F | °C
As of 8:55 PM on Thursday 27 Nov 2014 (Local Time) from KANQ Reporting Station
Overcast Overcast  
Wind Chill: 15°   Ceiling: 5000
Heat Index: 25°   Visibility: 10mi
Dew Point: 18°   Wind: 9mph
Humidity: 74%   Direction: 320°NW
Pressure: 30.31"   Gusts: NA
Location:  41.5677°N, 85.3125°W
Report Text: KANQ 280155Z AUTO 32008KT 10SM OVC050 M04/M08 A3031 RMK
Loading
Personal Weather Stations






























Interactive Weather Map New forecast layout! Learn more

10-Day Weather Forecast

Advertisements
Track Severe Weather on mobile